Chaumont, New York
Current Conditions -  °F | °C
As of 12:56 PM on Thursday 23 Oct 2014 (Local Time) from KART Reporting Station
Broken Clouds Broken Clouds  
Wind Chill: 55°   Ceiling: 3300
Heat Index: 55°   Visibility: 10mi
Dew Point: 38°   Wind: 16mph
Humidity: 53%   Direction: 360°N
Pressure: 29.98"   Gusts: 24mph
Location:  44.07°N, 76.13°W
Report Text: KART 231656Z AUTO 36014G21KT 10SM BKN033 13/03 A2998 RMK AO2 SLP154 T01280033
Loading
Personal Weather Stations






























Interactive Weather Map
Tropical Storm Tracking
New forecast layout! Learn more

10-Day Weather Forecast

Advertisements
Track Severe Weather on mobile